Ahsahka, ID (83520)

8:07 AM PDT on May 06, 2015 (GMT -0700)
RAWS | | Change Station
CLOSE
Current Station
Personal Weather Station
Location: Ahsahka, ID
Elevation: 1700 ft
Nearby Weather Stations

Elev 1700 ft 46.62 °N, 116.22 °W | Updated 59 minutes ago

Partly Cloudy
Partly Cloudy
41 °F
Feels Like 38 °F
N
4
Wind Variable Wind from NNE
Gusts 8.0 mph

Today
High -- | Low -- °F
--% Chance of Precip.
Yesterday
High -- | Low -- °F
Precip. -- in
5:23 AM 8:00 PM
Waning Gibbous, 94% visible
Pressure 30.01 in
Visibility 10.0 miles
Clouds Mostly Cloudy 10000 ft
Windchill 38 °F
Dew Point 35 °F
Humidity 79%
Rainfall in
Snow Depth Not available.
UV 1 out of 12
Pollen 9.60 out of 12
Air Quality Not available.
Flu Activity Sporadic
METAR KLWS 061456Z 00000KT 10SM BKN100 08/M01 A3001 RMK AO2 SLP162 T00831006 53007 $

More Conditions Fewer Conditions

Pressure 30.01 in
Visibility 10.0 miles
Clouds Mostly Cloudy 10000 ft
Windchill 38 °F
Dew Point 35 °F
Humidity 79%
Rainfall in
Snow Depth Not available.
UV 1 out of 12
Pollen 9.60 out of 12
Air Quality Not available.
Flu Activity Sporadic
METAR KLWS 061456Z 00000KT 10SM BKN100 08/M01 A3001 RMK AO2 SLP162 T00831006 53007 $

More Conditions Fewer Conditions

10-Day Weather Forecast

Almanac

Astronomy

May. 06, 2015 Rise Set
Actual Time
Civil Twilight
Nautical Twilight
Astronomical Twilight
Moon
Length of Visible Light
Length of Day
Tomorrow will be .
, % of the Moon is Illuminated

Today's Extremes

State Highs State Lows

Community

WunderPhotos

Upload Photos

1,818,926 photos uploaded!

WunderBlogs® & News

Nearby

Air Quality

  Air Quality AQ Index Pollutant
Not available.

Snow Depth

Station Depth Elevation

Earthquake Activity

City Distance Mag. Time & Date
Minimum magnitude displayed is 2.5.

Coastal Water Temperatures

Place Temperature

Stations

Nearby Weather Stations

Station Location Temp. Windchill Dew Point Humidity Wind Precip. Elev Updated Type